Time;durP1;ratioP1;P1;durP2;ratioP2;P2;SDS_P1;SDS_P2;PMS_P1;PMS_P2;Temp;Humidity;BMP_temperature;BMP_pressure;BME280_temperature;BME280_humidity;BME280_pressure;Samples;Min_cycle;Max_cycle;Signal;HPM_P1;HPM_P2
2023/07/22 00:00:46;;;;;;;11.02;7.18;;;14.00;99.90;;;;;;5141882;27;20054;-73
2023/07/22 00:03:11;;;;;;;12.73;7.75;;;14.00;99.90;;;;;;5146603;27;20431;-73
2023/07/22 00:05:37;;;;;;;13.30;7.10;;;14.00;99.90;;;;;;5143383;27;20034;-73
2023/07/22 00:08:03;;;;;;;12.07;7.32;;;13.90;99.90;;;;;;5149181;27;20054;-73
2023/07/22 00:10:29;;;;;;;8.93;6.35;;;13.90;99.90;;;;;;5141868;27;20042;-74
2023/07/22 00:12:54;;;;;;;10.93;6.50;;;13.90;99.90;;;;;;5152050;27;20035;-74
2023/07/22 00:15:22;;;;;;;11.65;6.10;;;13.80;99.90;;;;;;5124383;27;20031;-74
2023/07/22 00:17:47;;;;;;;10.35;6.05;;;13.90;99.90;;;;;;5145639;27;20051;-74
2023/07/22 00:20:14;;;;;;;11.52;6.38;;;13.80;99.90;;;;;;5144965;27;20042;-74
2023/07/22 00:22:39;;;;;;;12.88;6.70;;;13.70;99.90;;;;;;5147997;27;20049;-74
2023/07/22 00:25:11;;;;;;;9.65;5.78;;;13.70;99.90;;;;;;5150565;27;20030;-73
2023/07/22 00:27:42;;;;;;;11.05;5.95;;;13.70;99.90;;;;;;5150011;27;20069;-74
2023/07/22 00:30:08;;;;;;;10.70;5.90;;;13.70;99.90;;;;;;5139963;27;20027;-74
2023/07/22 00:32:36;;;;;;;9.80;6.10;;;13.70;99.90;;;;;;5149253;27;20035;-74
2023/07/22 00:35:03;;;;;;;10.00;6.28;;;13.70;99.90;;;;;;5144047;27;20042;-74
2023/07/22 00:37:28;;;;;;;8.77;5.90;;;13.70;99.90;;;;;;5141620;27;20424;-75
2023/07/22 00:39:54;;;;;;;8.70;5.47;;;13.70;99.90;;;;;;5142673;27;20087;-74
2023/07/22 00:42:20;;;;;;;9.23;5.38;;;13.70;99.90;;;;;;5144047;27;20453;-75
2023/07/22 00:44:46;;;;;;;8.43;5.68;;;13.80;99.90;;;;;;5147964;27;20077;-75
2023/07/22 00:47:12;;;;;;;10.00;5.82;;;13.80;99.90;;;;;;5133896;27;20035;-74
2023/07/22 00:49:38;;;;;;;9.10;5.28;;;13.80;99.90;;;;;;5142133;27;20039;-74
2023/07/22 00:52:04;;;;;;;8.55;5.15;;;13.70;99.90;;;;;;5149530;27;20071;-74
2023/07/22 00:54:30;;;;;;;10.70;5.25;;;13.60;99.90;;;;;;5123354;27;20486;-74
2023/07/22 00:56:57;;;;;;;8.55;5.50;;;13.60;99.90;;;;;;5143981;27;20164;-74
2023/07/22 00:59:23;;;;;;;9.23;5.65;;;13.60;99.90;;;;;;5147375;27;20126;-75
2023/07/22 01:01:49;;;;;;;8.73;5.13;;;13.40;99.90;;;;;;5141634;27;20043;-74
2023/07/22 01:04:16;;;;;;;9.63;4.90;;;13.40;99.90;;;;;;5138011;27;20038;-74
2023/07/22 01:06:44;;;;;;;9.20;5.40;;;13.40;99.90;;;;;;5139435;27;20118;-74
2023/07/22 01:09:09;;;;;;;8.40;4.97;;;13.30;99.90;;;;;;5148310;27;20031;-74
2023/07/22 01:11:35;;;;;;;11.15;5.13;;;13.30;99.90;;;;;;5123384;27;20107;-74
2023/07/22 01:14:01;;;;;;;7.65;5.20;;;13.30;99.90;;;;;;5150459;27;20038;-73
2023/07/22 01:16:28;;;;;;;9.38;4.93;;;13.30;99.90;;;;;;5141655;27;20031;-73
2023/07/22 01:18:54;;;;;;;9.55;5.07;;;13.40;99.90;;;;;;5138318;27;20045;-73
2023/07/22 01:21:22;;;;;;;7.85;4.75;;;13.40;99.90;;;;;;5138104;27;20049;-73
2023/07/22 01:23:48;;;;;;;9.90;5.25;;;13.40;99.90;;;;;;5128289;27;20050;-73
2023/07/22 01:26:14;;;;;;;8.15;5.10;;;13.40;99.90;;;;;;5150284;27;20042;-73
2023/07/22 01:28:40;;;;;;;7.75;4.38;;;13.40;99.90;;;;;;5146671;27;20049;-74
2023/07/22 01:31:05;;;;;;;7.88;4.50;;;13.40;99.90;;;;;;5141853;27;20493;-74
2023/07/22 01:33:31;;;;;;;8.25;4.30;;;13.40;99.90;;;;;;5133516;27;20528;-74
2023/07/22 01:35:57;;;;;;;9.43;4.53;;;13.40;99.90;;;;;;5142252;27;20062;-74
2023/07/22 01:38:23;;;;;;;9.85;5.13;;;13.40;99.90;;;;;;5140352;27;20501;-74
2023/07/22 01:40:48;;;;;;;6.30;4.03;;;13.30;99.90;;;;;;5139313;27;20121;-74
2023/07/22 01:43:14;;;;;;;10.20;4.40;;;13.30;99.90;;;;;;5144700;27;20046;-74
2023/07/22 01:45:39;;;;;;;8.13;5.10;;;13.40;99.90;;;;;;5145329;27;20066;-73
2023/07/22 01:48:06;;;;;;;8.90;4.45;;;13.30;99.90;;;;;;5148650;27;20042;-74
2023/07/22 01:50:31;;;;;;;6.97;4.28;;;13.30;99.90;;;;;;5142041;27;20043;-73
2023/07/22 01:52:57;;;;;;;7.05;4.07;;;13.30;99.90;;;;;;5144802;27;20121;-73
2023/07/22 01:55:23;;;;;;;7.85;5.25;;;13.30;99.90;;;;;;5147290;27;20039;-73
2023/07/22 01:57:48;;;;;;;7.53;4.25;;;13.20;99.90;;;;;;5143383;27;20030;-73
2023/07/22 02:00:15;;;;;;;6.57;4.05;;;13.20;99.90;;;;;;5148204;27;20050;-74
2023/07/22 02:02:43;;;;;;;7.50;4.22;;;13.10;99.90;;;;;;5137877;27;20039;-74
2023/07/22 02:05:12;;;;;;;9.07;4.68;;;13.10;99.90;;;;;;5150122;27;20405;-73
2023/07/22 02:07:38;;;;;;;6.47;4.22;;;13.10;99.90;;;;;;5138567;27;20039;-74
2023/07/22 02:10:05;;;;;;;6.88;4.22;;;13.00;99.90;;;;;;5144734;27;20038;-74
2023/07/22 02:12:31;;;;;;;8.35;4.32;;;13.00;99.90;;;;;;5146014;27;20098;-74
2023/07/22 02:14:56;;;;;;;7.38;4.18;;;13.00;99.90;;;;;;5145786;27;20038;-74
2023/07/22 02:17:23;;;;;;;10.15;4.70;;;12.90;99.90;;;;;;5149567;27;20413;-74
2023/07/22 02:19:49;;;;;;;7.43;4.18;;;12.90;99.90;;;;;;5148020;27;20051;-74
2023/07/22 02:22:14;;;;;;;9.27;5.22;;;12.90;99.90;;;;;;5147680;27;20053;-74
2023/07/22 02:24:40;;;;;;;7.93;4.28;;;12.80;99.90;;;;;;5152428;27;20039;-74
2023/07/22 02:27:06;;;;;;;10.23;4.68;;;12.80;99.90;;;;;;5143681;27;20035;-74
2023/07/22 02:29:32;;;;;;;7.28;4.15;;;12.70;99.90;;;;;;5150825;27;20050;-73
2023/07/22 02:31:57;;;;;;;9.65;4.53;;;12.70;99.90;;;;;;5152586;27;20060;-73
2023/07/22 02:34:23;;;;;;;7.03;4.20;;;12.70;99.90;;;;;;5145414;27;20043;-74
2023/07/22 02:36:49;;;;;;;6.82;4.40;;;12.60;99.90;;;;;;5147380;27;20039;-73
2023/07/22 02:39:14;;;;;;;8.65;4.43;;;12.60;99.90;;;;;;5151912;27;20113;-73
2023/07/22 02:41:40;;;;;;;8.70;4.65;;;12.60;99.90;;;;;;5146722;27;20026;-74
2023/07/22 02:44:05;;;;;;;8.80;4.80;;;12.60;99.90;;;;;;5152963;27;20039;-74
2023/07/22 02:46:31;;;;;;;7.78;4.78;;;12.50;99.90;;;;;;5146294;27;20038;-74
2023/07/22 02:48:58;;;;;;;7.78;4.53;;;12.50;99.90;;;;;;5151566;27;20026;-74
2023/07/22 02:51:24;;;;;;;8.13;4.68;;;12.50;99.90;;;;;;5141472;27;20035;-74
2023/07/22 02:53:50;;;;;;;7.68;4.32;;;12.50;99.90;;;;;;5142619;27;20036;-73
2023/07/22 02:56:16;;;;;;;9.38;4.18;;;12.50;99.90;;;;;;5147118;27;20045;-73
2023/07/22 02:58:44;;;;;;;9.15;4.80;;;12.50;99.90;;;;;;5148066;27;20037;-74
2023/07/22 03:01:10;;;;;;;7.43;4.10;;;12.50;99.90;;;;;;5145796;27;20031;-73
2023/07/22 03:03:36;;;;;;;6.38;3.97;;;12.40;99.90;;;;;;5140573;27;20035;-74
2023/07/22 03:06:03;;;;;;;7.93;4.38;;;12.50;99.90;;;;;;5144962;27;20157;-74
2023/07/22 03:08:29;;;;;;;7.85;4.57;;;12.40;99.90;;;;;;5148848;27;20046;-74
2023/07/22 03:10:55;;;;;;;9.80;4.53;;;12.40;99.90;;;;;;5139136;27;20528;-74
2023/07/22 03:13:20;;;;;;;8.57;4.90;;;12.40;99.90;;;;;;5147070;27;20149;-73
2023/07/22 03:15:46;;;;;;;8.48;4.72;;;12.40;99.90;;;;;;5144870;27;20489;-73
2023/07/22 03:18:11;;;;;;;8.43;4.90;;;12.40;99.90;;;;;;5147210;27;20034;-74
2023/07/22 03:20:37;;;;;;;11.35;5.03;;;12.30;99.90;;;;;;5131952;27;20050;-73
2023/07/22 03:23:06;;;;;;;9.70;5.72;;;12.30;99.90;;;;;;5120338;27;20122;-73
2023/07/22 03:25:33;;;;;;;10.20;5.70;;;12.30;99.90;;;;;;5145773;27;20049;-73
2023/07/22 03:28:03;;;;;;;9.98;5.95;;;12.20;99.90;;;;;;5148200;27;20035;-73
2023/07/22 03:30:29;;;;;;;11.27;5.68;;;12.20;99.90;;;;;;5147488;27;20049;-73
2023/07/22 03:32:55;;;;;;;9.75;6.03;;;12.20;99.90;;;;;;5148569;27;20030;-73
2023/07/22 03:35:20;;;;;;;9.52;5.90;;;12.20;99.90;;;;;;5138800;27;20043;-73
2023/07/22 03:37:46;;;;;;;10.70;6.20;;;12.20;99.90;;;;;;5142447;27;20433;-72
2023/07/22 03:40:22;;;;;;;10.73;5.93;;;12.20;99.90;;;;;;5146061;27;20041;-73
2023/07/22 03:42:51;;;;;;;10.63;5.80;;;12.20;99.90;;;;;;5150175;27;20043;-73
2023/07/22 03:45:18;;;;;;;10.05;5.82;;;12.30;99.90;;;;;;5150920;27;20042;-73
2023/07/22 03:47:45;;;;;;;8.85;5.95;;;12.30;99.90;;;;;;5138220;27;20043;-73
2023/07/22 03:50:11;;;;;;;9.23;6.00;;;12.40;99.90;;;;;;5144672;27;20074;-72
2023/07/22 03:52:36;;;;;;;9.35;6.75;;;12.40;99.90;;;;;;5146123;27;20088;-72
2023/07/22 03:55:03;;;;;;;10.20;6.15;;;12.50;99.90;;;;;;5139099;27;20038;-73
2023/07/22 03:57:29;;;;;;;9.93;5.82;;;12.60;99.90;;;;;;5148482;27;20042;-73
2023/07/22 03:59:55;;;;;;;9.35;5.95;;;12.60;99.90;;;;;;5136731;27;20046;-73
2023/07/22 04:02:21;;;;;;;9.43;5.85;;;12.60;99.90;;;;;;5148391;27;20509;-73
2023/07/22 04:04:47;;;;;;;9.88;5.85;;;12.70;99.90;;;;;;5149594;27;20043;-72
2023/07/22 04:07:12;;;;;;;8.32;5.78;;;12.70;99.90;;;;;;5145416;27;20043;-73
2023/07/22 04:09:38;;;;;;;13.32;6.32;;;12.80;99.90;;;;;;5146797;27;20039;-73
2023/07/22 04:12:04;;;;;;;11.48;6.40;;;12.80;99.90;;;;;;5135737;27;20125;-73
2023/07/22 04:14:30;;;;;;;11.30;6.20;;;12.80;99.90;;;;;;5143482;27;20088;-73
2023/07/22 04:16:55;;;;;;;9.70;5.88;;;12.90;99.90;;;;;;5147608;27;20452;-73
2023/07/22 04:19:21;;;;;;;9.75;5.63;;;12.90;99.90;;;;;;5145229;27;20819;-73
2023/07/22 04:21:46;;;;;;;9.63;6.05;;;12.90;99.90;;;;;;5145631;27;20035;-73
2023/07/22 04:24:12;;;;;;;13.50;5.75;;;13.00;99.90;;;;;;5141789;27;20050;-73
2023/07/22 04:26:37;;;;;;;14.23;6.10;;;13.00;99.90;;;;;;5143832;27;20045;-72
2023/07/22 04:29:03;;;;;;;9.75;5.57;;;13.00;99.90;;;;;;5150899;27;20037;-72
2023/07/22 04:31:29;;;;;;;9.18;5.38;;;13.00;99.90;;;;;;5149417;27;20134;-73
2023/07/22 04:33:54;;;;;;;10.27;5.80;;;13.00;99.90;;;;;;5120637;27;20037;-73
2023/07/22 04:36:20;;;;;;;9.50;5.60;;;13.10;99.90;;;;;;5146427;27;20118;-72
2023/07/22 04:38:45;;;;;;;8.27;5.60;;;13.00;99.90;;;;;;5138441;27;20034;-72
2023/07/22 04:41:11;;;;;;;8.18;5.25;;;13.00;99.90;;;;;;5141123;27;20042;-73
2023/07/22 04:43:36;;;;;;;8.77;5.18;;;13.00;99.90;;;;;;5127784;27;20579;-73
2023/07/22 04:46:02;;;;;;;7.90;4.90;;;13.00;99.90;;;;;;5152566;27;20509;-73
2023/07/22 04:48:27;;;;;;;9.65;5.32;;;13.00;99.90;;;;;;5146016;27;20095;-73
2023/07/22 04:50:53;;;;;;;8.35;5.57;;;13.00;99.90;;;;;;5145491;27;20042;-73
2023/07/22 04:53:19;;;;;;;8.77;5.45;;;13.00;99.90;;;;;;5147936;27;20031;-73
2023/07/22 04:55:44;;;;;;;9.45;5.53;;;13.00;99.90;;;;;;5144743;27;20542;-73
2023/07/22 04:58:10;;;;;;;7.95;5.40;;;13.10;99.90;;;;;;5145225;27;20113;-73
2023/07/22 05:00:37;;;;;;;7.95;4.90;;;13.10;99.90;;;;;;5137983;27;20454;-73
2023/07/22 05:03:03;;;;;;;8.65;5.65;;;13.10;99.90;;;;;;5148782;27;20045;-73
2023/07/22 05:05:28;;;;;;;10.00;5.10;;;13.20;99.90;;;;;;5137159;27;20122;-73
2023/07/22 05:07:54;;;;;;;9.45;5.30;;;13.20;99.90;;;;;;5147765;27;20469;-73
2023/07/22 05:10:20;;;;;;;9.15;5.35;;;13.20;99.90;;;;;;5138733;27;20039;-73
2023/07/22 05:12:45;;;;;;;8.55;5.47;;;13.20;99.90;;;;;;5144294;27;20163;-73
2023/07/22 05:15:12;;;;;;;11.90;6.10;;;13.30;99.90;;;;;;5144626;27;20026;-73
2023/07/22 05:17:38;;;;;;;8.30;5.55;;;13.30;99.90;;;;;;5145692;27;20076;-73
2023/07/22 05:20:12;;;;;;;9.98;6.13;;;13.30;99.90;;;;;;5145790;27;20084;-74
2023/07/22 05:22:38;;;;;;;9.88;6.20;;;13.40;99.90;;;;;;5141530;27;20066;-73
2023/07/22 05:25:05;;;;;;;9.68;6.22;;;13.50;99.90;;;;;;5143944;27;20038;-74
2023/07/22 05:27:31;;;;;;;10.38;6.57;;;13.50;99.90;;;;;;5147834;27;20046;-73
2023/07/22 05:29:56;;;;;;;8.15;6.03;;;13.60;99.90;;;;;;5142021;27;20038;-73
2023/07/22 05:32:22;;;;;;;9.88;5.50;;;13.60;99.90;;;;;;5137960;27;20043;-73
2023/07/22 05:34:47;;;;;;;10.00;5.88;;;13.60;99.90;;;;;;5145376;27;20043;-73
2023/07/22 05:37:13;;;;;;;10.52;6.13;;;13.70;99.90;;;;;;5138939;27;20035;-74
2023/07/22 05:39:38;;;;;;;12.50;6.93;;;13.80;99.90;;;;;;5141126;27;20035;-74
2023/07/22 05:42:04;;;;;;;11.05;6.05;;;13.90;99.90;;;;;;5143433;27;20031;-74
2023/07/22 05:44:30;;;;;;;9.45;6.15;;;14.00;99.90;;;;;;5149015;27;20038;-74
2023/07/22 05:46:56;;;;;;;9.02;6.22;;;14.10;99.90;;;;;;5143262;27;20031;-73
2023/07/22 05:49:21;;;;;;;9.95;6.78;;;14.20;99.90;;;;;;5141991;27;20038;-73
2023/07/22 05:51:47;;;;;;;10.18;6.63;;;14.40;99.90;;;;;;5141800;27;20051;-73
2023/07/22 05:54:12;;;;;;;14.18;6.90;;;14.50;99.90;;;;;;5140631;27;20031;-74
2023/07/22 05:56:38;;;;;;;11.32;6.75;;;14.60;99.90;;;;;;5138827;27;20058;-73
2023/07/22 05:59:04;;;;;;;9.93;6.82;;;14.70;99.90;;;;;;5149225;27;20034;-74
2023/07/22 06:01:29;;;;;;;11.77;7.20;;;14.80;99.90;;;;;;5143255;27;20082;-74
2023/07/22 06:03:55;;;;;;;10.70;6.70;;;14.80;99.90;;;;;;5143402;27;20551;-73
2023/07/22 06:06:20;;;;;;;13.35;7.30;;;14.80;99.90;;;;;;5146028;27;20053;-74
2023/07/22 06:08:46;;;;;;;10.98;7.40;;;14.90;99.90;;;;;;5144399;27;20035;-73
2023/07/22 06:11:11;;;;;;;11.55;7.20;;;14.90;99.90;;;;;;5128235;27;20558;-74
2023/07/22 06:13:37;;;;;;;11.55;7.53;;;15.00;99.90;;;;;;5142553;27;20035;-73
2023/07/22 06:16:03;;;;;;;12.55;8.05;;;15.10;99.90;;;;;;5147943;27;20084;-73
2023/07/22 06:18:28;;;;;;;12.68;7.53;;;15.20;99.90;;;;;;5143648;27;20079;-74
2023/07/22 06:20:54;;;;;;;12.18;8.07;;;15.30;99.90;;;;;;5136856;27;20042;-73
2023/07/22 06:23:19;;;;;;;12.60;8.40;;;15.40;99.90;;;;;;5140946;27;20405;-73
2023/07/22 06:25:45;;;;;;;12.57;8.18;;;15.40;99.90;;;;;;5143576;27;20031;-73
2023/07/22 06:28:10;;;;;;;20.35;8.43;;;15.50;99.90;;;;;;5143782;27;20046;-73
2023/07/22 06:30:36;;;;;;;14.63;8.70;;;15.50;99.90;;;;;;5146197;27;20038;-74
2023/07/22 06:33:02;;;;;;;11.52;8.55;;;15.60;99.90;;;;;;5147195;27;20038;-74
2023/07/22 06:35:27;;;;;;;13.57;8.55;;;15.60;99.90;;;;;;5123862;27;20489;-74
2023/07/22 06:37:53;;;;;;;13.05;9.02;;;15.80;99.90;;;;;;5143550;27;20188;-74
2023/07/22 06:40:18;;;;;;;13.77;8.60;;;15.90;99.90;;;;;;5149019;27;20039;-74
2023/07/22 06:42:44;;;;;;;15.48;8.30;;;16.00;99.90;;;;;;5135492;27;20090;-75
2023/07/22 06:45:10;;;;;;;13.80;8.35;;;16.20;99.90;;;;;;5116457;27;20034;-74
2023/07/22 06:47:36;;;;;;;11.55;8.40;;;16.20;99.90;;;;;;5142670;27;20042;-74
2023/07/22 06:50:04;;;;;;;13.05;8.45;;;16.40;99.90;;;;;;5142168;27;20062;-74
2023/07/22 06:52:30;;;;;;;14.60;8.07;;;16.50;99.90;;;;;;5143518;27;20088;-74
2023/07/22 06:54:55;;;;;;;14.85;8.27;;;16.60;99.90;;;;;;5135264;27;20588;-74
2023/07/22 06:57:21;;;;;;;12.30;8.43;;;16.80;99.90;;;;;;5143500;27;20031;-74
2023/07/22 06:59:47;;;;;;;11.20;8.15;;;16.90;99.90;;;;;;5148091;27;20045;-74
2023/07/22 07:02:12;;;;;;;12.50;7.85;;;16.90;99.90;;;;;;5149976;27;20042;-73
2023/07/22 07:04:38;;;;;;;12.38;7.45;;;17.00;99.90;;;;;;5147043;27;20039;-74
2023/07/22 07:07:04;;;;;;;11.45;7.57;;;17.00;99.90;;;;;;5143797;27;20053;-75
2023/07/22 07:09:29;;;;;;;12.70;7.78;;;16.90;99.90;;;;;;5154924;27;20042;-75
2023/07/22 07:11:57;;;;;;;11.40;7.88;;;17.00;99.90;;;;;;5153045;27;20049;-74
2023/07/22 07:14:24;;;;;;;11.82;7.20;;;17.00;99.90;;;;;;5151839;27;20153;-73
2023/07/22 07:16:50;;;;;;;13.00;8.50;;;17.10;99.90;;;;;;5140488;27;20073;-73
2023/07/22 07:19:15;;;;;;;10.95;7.78;;;17.00;99.90;;;;;;5145764;27;20314;-76
2023/07/22 07:21:41;;;;;;;11.20;7.97;;;17.00;99.90;;;;;;5143698;27;20039;-76
2023/07/22 07:24:07;;;;;;;10.32;7.47;;;16.80;99.90;;;;;;5133721;27;20169;-73
2023/07/22 07:26:33;;;;;;;11.30;7.45;;;16.70;99.90;;;;;;5115911;27;20417;-73
2023/07/22 07:28:58;;;;;;;10.85;7.53;;;16.60;99.90;;;;;;5114909;27;20064;-74
2023/07/22 07:31:24;;;;;;;11.90;7.75;;;16.60;99.90;;;;;;5131982;27;20537;-74
2023/07/22 07:33:50;;;;;;;12.15;7.55;;;16.60;99.90;;;;;;5131882;27;20035;-74
2023/07/22 07:36:16;;;;;;;12.82;8.15;;;16.60;99.90;;;;;;5132358;27;20075;-73
2023/07/22 07:38:42;;;;;;;13.30;8.23;;;16.60;99.90;;;;;;5133022;27;20032;-74
2023/07/22 07:41:08;;;;;;;11.85;8.43;;;16.60;99.90;;;;;;5145020;27;20501;-75
2023/07/22 07:43:34;;;;;;;12.95;8.73;;;16.70;99.90;;;;;;5137881;27;20081;-73
2023/07/22 07:46:21;;;;;;;15.35;9.02;;;16.80;99.90;;;;;;5133066;27;20047;-74
2023/07/22 07:48:48;;;;;;;12.35;8.25;;;16.90;99.90;;;;;;5133430;27;20382;-75
2023/07/22 07:51:15;;;;;;;10.73;8.18;;;17.20;99.90;;;;;;5132983;27;20044;-74
2023/07/22 07:53:43;;;;;;;13.60;9.02;;;17.40;99.90;;;;;;5144238;27;20493;-74
2023/07/22 07:56:09;;;;;;;13.18;9.18;;;17.50;99.90;;;;;;5139024;27;20043;-73
2023/07/22 07:58:36;;;;;;;11.82;8.32;;;17.60;99.90;;;;;;5132774;27;20046;-75
2023/07/22 08:01:01;;;;;;;13.20;7.57;;;17.70;99.90;;;;;;5132894;27;20120;-73
2023/07/22 08:03:27;;;;;;;11.43;7.55;;;17.90;99.90;;;;;;5115386;27;20501;-74
2023/07/22 08:05:52;;;;;;;10.85;7.85;;;17.90;99.90;;;;;;5134049;27;20051;-74
2023/07/22 08:08:18;;;;;;;11.02;7.22;;;18.00;99.90;;;;;;5131633;27;20459;-74
2023/07/22 08:10:44;;;;;;;8.45;6.15;;;18.10;99.90;;;;;;5115708;27;20429;-75
2023/07/22 08:13:10;;;;;;;9.88;6.53;;;17.90;99.90;;;;;;5132911;27;20449;-74
2023/07/22 08:15:35;;;;;;;8.75;6.53;;;17.90;99.90;;;;;;5132437;27;20118;-74
2023/07/22 08:18:01;;;;;;;8.75;6.10;;;17.80;99.90;;;;;;5132525;27;20037;-74
2023/07/22 08:20:27;;;;;;;8.85;6.55;;;17.90;99.90;;;;;;5132657;27;20410;-75
2023/07/22 08:22:52;;;;;;;9.20;6.03;;;17.80;99.90;;;;;;5132130;27;20058;-74
2023/07/22 08:25:18;;;;;;;8.52;6.00;;;17.80;99.90;;;;;;5132073;27;20035;-74
2023/07/22 08:27:43;;;;;;;8.93;6.70;;;17.90;99.90;;;;;;5132172;27;20485;-73
2023/07/22 08:30:09;;;;;;;7.95;5.85;;;18.10;99.90;;;;;;5144507;27;20034;-74
2023/07/22 08:32:35;;;;;;;9.60;6.05;;;18.20;99.90;;;;;;5145837;27;20071;-74
2023/07/22 08:35:00;;;;;;;7.80;5.95;;;18.40;99.90;;;;;;5132045;27;20545;-75
2023/07/22 08:37:26;;;;;;;8.50;6.10;;;18.50;99.90;;;;;;5132595;27;20043;-74
2023/07/22 08:39:51;;;;;;;10.23;6.43;;;18.60;99.90;;;;;;5132374;27;20043;-74
2023/07/22 08:42:19;;;;;;;8.45;6.20;;;18.60;99.90;;;;;;5131923;27;20054;-74
2023/07/22 08:44:48;;;;;;;9.25;5.85;;;18.60;99.90;;;;;;5132106;27;20402;-75
2023/07/22 08:47:16;;;;;;;7.03;5.53;;;18.70;99.90;;;;;;5132091;27;20042;-75
2023/07/22 08:49:50;;;;;;;6.90;5.47;;;18.80;99.90;;;;;;5133997;27;20043;-74
2023/07/22 08:52:15;;;;;;;8.27;5.82;;;18.80;99.90;;;;;;5152805;27;20039;-74
2023/07/22 08:54:42;;;;;;;7.78;5.65;;;18.90;99.90;;;;;;5148804;27;20377;-74
2023/07/22 08:57:09;;;;;;;8.15;5.47;;;19.00;99.90;;;;;;5141269;27;20110;-73
2023/07/22 08:59:35;;;;;;;7.55;5.20;;;19.00;99.90;;;;;;5145776;27;20118;-74
2023/07/22 09:02:01;;;;;;;9.30;6.05;;;19.00;99.90;;;;;;5137133;27;20052;-74
2023/07/22 09:04:27;;;;;;;8.15;5.80;;;19.10;99.90;;;;;;5144550;27;20054;-74
2023/07/22 09:06:54;;;;;;;6.05;5.07;;;19.20;99.90;;;;;;5137129;27;20062;-75
2023/07/22 09:09:22;;;;;;;8.43;6.15;;;19.30;99.90;;;;;;5133664;27;20040;-74
2023/07/22 09:11:48;;;;;;;9.05;6.22;;;19.20;99.90;;;;;;5142309;27;20097;-76
2023/07/22 09:14:13;;;;;;;9.75;6.32;;;19.00;99.90;;;;;;5146250;27;20091;-74
2023/07/22 09:16:40;;;;;;;9.20;5.90;;;18.90;99.90;;;;;;5144142;27;20497;-74
2023/07/22 09:19:06;;;;;;;7.95;5.30;;;18.80;99.90;;;;;;5138353;27;20062;-74
2023/07/22 09:21:35;;;;;;;9.50;6.75;;;18.60;99.90;;;;;;5134593;27;20431;-74
2023/07/22 09:24:01;;;;;;;9.68;6.78;;;18.30;99.90;;;;;;5132070;27;20035;-75
2023/07/22 09:26:26;;;;;;;11.95;7.53;;;18.00;99.90;;;;;;5138756;27;20094;-75
2023/07/22 09:28:58;;;;;;;10.25;7.28;;;17.80;99.90;;;;;;5138965;27;20095;-76
2023/07/22 09:31:26;;;;;;;10.73;7.20;;;17.60;99.90;;;;;;5133165;27;20043;-75
2023/07/22 09:33:55;;;;;;;11.02;7.07;;;17.40;99.90;;;;;;5135777;27;20031;-75
2023/07/22 09:36:20;;;;;;;10.30;7.35;;;17.20;99.90;;;;;;5130731;27;20043;-74
2023/07/22 09:39:02;;;;;;;8.13;6.47;;;17.10;99.90;;;;;;5137754;27;20410;-75
2023/07/22 09:41:30;;;;;;;10.00;6.97;;;17.10;99.90;;;;;;5146155;27;20051;-75
2023/07/22 09:43:56;;;;;;;9.90;6.65;;;17.20;99.90;;;;;;5135401;27;20164;-75
2023/07/22 09:46:30;;;;;;;9.40;6.97;;;17.40;99.90;;;;;;5115115;27;20490;-75
2023/07/22 09:48:55;;;;;;;10.25;7.75;;;17.60;99.90;;;;;;5132902;27;20039;-74
2023/07/22 09:51:21;;;;;;;11.93;8.05;;;17.80;99.90;;;;;;5138140;27;20133;-74
2023/07/22 09:53:58;;;;;;;9.18;7.05;;;18.00;99.90;;;;;;5134764;27;20035;-74
2023/07/22 09:56:24;;;;;;;10.70;7.43;;;18.10;99.90;;;;;;5141009;27;20066;-74
2023/07/22 09:58:51;;;;;;;9.80;7.18;;;18.10;99.90;;;;;;5140799;27;20066;-75
2023/07/22 10:01:19;;;;;;;9.40;7.05;;;18.10;99.90;;;;;;5142341;27;20532;-74
2023/07/22 10:03:47;;;;;;;10.10;7.45;;;18.10;99.90;;;;;;5116472;27;20039;-74
2023/07/22 10:06:14;;;;;;;10.02;7.00;;;18.10;99.90;;;;;;5140110;27;20087;-75
2023/07/22 10:08:44;;;;;;;10.32;6.78;;;18.00;99.90;;;;;;5135949;27;20049;-79
2023/07/22 10:11:11;;;;;;;9.75;6.70;;;17.90;99.90;;;;;;5143223;27;20087;-73
2023/07/22 10:13:38;;;;;;;10.35;7.07;;;17.80;99.90;;;;;;5132804;27;20039;-74
2023/07/22 10:16:04;;;;;;;8.95;6.32;;;17.70;99.90;;;;;;5140563;27;20442;-74
2023/07/22 10:18:32;;;;;;;8.57;5.97;;;17.70;99.90;;;;;;5140860;27;20493;-73
2023/07/22 10:20:58;;;;;;;8.57;5.95;;;17.70;99.90;;;;;;5139598;27;20459;-74
2023/07/22 10:23:25;;;;;;;9.18;6.38;;;17.70;99.90;;;;;;5144725;27;20038;-73
2023/07/22 10:25:53;;;;;;;8.48;6.20;;;17.60;99.90;;;;;;5138763;27;20027;-73
2023/07/22 10:28:21;;;;;;;7.50;5.53;;;17.70;99.90;;;;;;5138170;27;20371;-73
2023/07/22 10:30:47;;;;;;;9.55;5.97;;;17.70;99.90;;;;;;5141321;27;20538;-74
2023/07/22 10:33:13;;;;;;;10.52;6.22;;;17.70;99.90;;;;;;5146236;27;20054;-73
2023/07/22 10:35:44;;;;;;;6.55;5.20;;;17.70;99.90;;;;;;5145634;27;20042;-74
2023/07/22 10:38:14;;;;;;;7.53;5.45;;;17.80;99.90;;;;;;5149605;27;20087;-74
2023/07/22 10:40:47;;;;;;;8.23;6.40;;;17.80;99.90;;;;;;5144836;27;20118;-73
2023/07/22 10:43:17;;;;;;;7.53;5.53;;;17.80;99.90;;;;;;5130419;27;20038;-73
2023/07/22 10:45:48;;;;;;;6.78;5.15;;;17.70;99.90;;;;;;5141254;27;20284;-73
2023/07/22 10:48:14;;;;;;;7.00;5.55;;;17.80;99.90;;;;;;5147884;27;20468;-74
2023/07/22 10:50:46;;;;;;;8.45;5.43;;;17.70;99.90;;;;;;5143530;27;20062;-73
2023/07/22 10:53:24;;;;;;;5.90;5.05;;;17.60;99.90;;;;;;5141275;27;20034;-74
2023/07/22 10:56:09;;;;;;;7.30;5.03;;;17.60;99.90;;;;;;5149312;27;20041;-73
2023/07/22 10:58:47;;;;;;;6.60;5.32;;;17.50;99.90;;;;;;5137408;27;20053;-73
2023/07/22 11:01:34;;;;;;;6.90;5.45;;;17.40;99.90;;;;;;5144772;27;20438;-74
2023/07/22 11:04:10;;;;;;;6.80;5.60;;;17.40;99.90;;;;;;5154490;27;20043;-74
2023/07/22 11:06:38;;;;;;;7.38;5.88;;;17.40;99.90;;;;;;5143314;27;20030;-73
2023/07/22 11:09:04;;;;;;;8.02;6.18;;;17.40;99.90;;;;;;5136810;27;20035;-74
2023/07/22 11:11:40;;;;;;;7.40;6.07;;;17.40;99.90;;;;;;5123428;27;20042;-73
2023/07/22 11:14:22;;;;;;;10.38;7.20;;;17.40;99.90;;;;;;5146417;27;20027;-74
2023/07/22 11:16:48;;;;;;;9.10;6.43;;;17.40;99.90;;;;;;5149511;27;20035;-74
2023/07/22 11:19:15;;;;;;;8.13;6.78;;;17.40;99.90;;;;;;5145996;27;20038;-73
2023/07/22 11:21:42;;;;;;;8.90;6.85;;;17.40;99.90;;;;;;5150809;27;20050;-74
2023/07/22 11:24:07;;;;;;;8.30;6.10;;;17.40;99.90;;;;;;5146909;27;20038;-75
2023/07/22 11:26:34;;;;;;;9.27;6.40;;;17.40;99.90;;;;;;5127046;27;20122;-76
2023/07/22 11:29:01;;;;;;;7.50;6.30;;;17.40;99.90;;;;;;5140288;27;20043;-76
2023/07/22 11:31:36;;;;;;;8.68;6.90;;;17.40;99.90;;;;;;5142723;27;20039;-75
2023/07/22 11:34:02;;;;;;;10.13;7.03;;;17.30;99.90;;;;;;5136425;27;20045;-76
2023/07/22 11:36:28;;;;;;;11.55;7.05;;;17.30;99.90;;;;;;5142978;27;20042;-76
2023/07/22 11:39:05;;;;;;;9.98;7.25;;;17.30;99.90;;;;;;5143963;27;20035;-77
2023/07/22 11:41:32;;;;;;;10.93;7.53;;;17.30;99.90;;;;;;5152063;27;20052;-75
2023/07/22 11:43:58;;;;;;;9.95;7.82;;;17.30;99.90;;;;;;5145838;27;20138;-77
2023/07/22 11:46:25;;;;;;;8.85;7.57;;;17.20;99.90;;;;;;5144621;27;20410;-76
2023/07/22 11:48:52;;;;;;;9.85;8.07;;;17.20;99.90;;;;;;5121875;27;20108;-76
2023/07/22 11:51:25;;;;;;;9.00;7.10;;;17.10;99.90;;;;;;5144453;27;20097;-75
2023/07/22 11:53:52;;;;;;;10.73;7.82;;;17.10;99.90;;;;;;5152385;27;20465;-76
2023/07/22 11:56:28;;;;;;;11.38;7.85;;;17.10;99.90;;;;;;5148363;27;20400;-76
2023/07/22 11:58:57;;;;;;;9.18;7.80;;;17.10;99.90;;;;;;5152427;27;20066;-76
2023/07/22 12:01:23;;;;;;;9.45;8.05;;;17.00;99.90;;;;;;5144673;27;20049;-75
2023/07/22 12:03:55;;;;;;;9.88;7.72;;;17.10;99.90;;;;;;5142954;27;20143;-76
2023/07/22 12:06:24;;;;;;;11.10;8.18;;;17.10;99.90;;;;;;5141222;27;20039;-76
2023/07/22 12:08:52;;;;;;;10.57;8.20;;;17.10;99.90;;;;;;5134682;27;20090;-76
2023/07/22 12:11:24;;;;;;;10.75;8.32;;;17.10;99.90;;;;;;5151018;27;20043;-76
2023/07/22 12:14:11;;;;;;;9.85;8.45;;;17.20;99.90;;;;;;5151529;27;20035;-76
2023/07/22 12:16:39;;;;;;;9.48;7.53;;;17.30;99.90;;;;;;5153392;27;20034;-74
2023/07/22 12:19:06;;;;;;;10.05;8.27;;;17.40;99.90;;;;;;5142005;27;20549;-76
2023/07/22 12:21:31;;;;;;;10.15;8.98;;;17.40;99.90;;;;;;5142719;27;20053;-76
2023/07/22 12:23:57;;;;;;;9.60;8.10;;;17.40;99.90;;;;;;5140578;27;20038;-77
2023/07/22 12:26:23;;;;;;;10.25;8.23;;;17.50;99.90;;;;;;5133711;27;20058;-76
2023/07/22 12:28:48;;;;;;;9.88;8.48;;;17.40;99.90;;;;;;5138559;27;20042;-76
2023/07/22 12:31:14;;;;;;;12.40;9.02;;;17.40;99.90;;;;;;5132331;27;20035;-76
2023/07/22 12:33:39;;;;;;;9.60;7.88;;;17.40;99.90;;;;;;5136532;27;20042;-76
2023/07/22 12:36:05;;;;;;;9.45;8.40;;;17.40;99.90;;;;;;5136205;27;20057;-76
2023/07/22 12:38:31;;;;;;;9.82;8.00;;;17.40;99.90;;;;;;5137516;27;20062;-76
2023/07/22 12:40:57;;;;;;;11.35;7.85;;;17.30;99.90;;;;;;5136276;27;20043;-76